sensor_id;sensor_type;location;lat;lon;timestamp;P1;durP1;ratioP1;P2;durP2;ratioP2
21030;SDS011;61072;47.808;7.636;2023-02-04T00:01:46;6.38;;;2.10;;
21030;SDS011;61072;47.808;7.636;2023-02-04T00:04:12;4.85;;;2.30;;
21030;SDS011;61072;47.808;7.636;2023-02-04T00:06:39;2.47;;;1.85;;
21030;SDS011;61072;47.808;7.636;2023-02-04T00:09:06;2.88;;;2.00;;
21030;SDS011;61072;47.808;7.636;2023-02-04T00:11:33;3.60;;;2.00;;
21030;SDS011;61072;47.808;7.636;2023-02-04T00:14:00;4.07;;;2.35;;
21030;SDS011;61072;47.808;7.636;2023-02-04T00:16:26;3.42;;;2.10;;
21030;SDS011;61072;47.808;7.636;2023-02-04T00:18:53;5.65;;;2.05;;
21030;SDS011;61072;47.808;7.636;2023-02-04T00:21:20;5.05;;;2.00;;
21030;SDS011;61072;47.808;7.636;2023-02-04T00:23:46;3.63;;;1.73;;
21030;SDS011;61072;47.808;7.636;2023-02-04T00:26:14;3.80;;;2.38;;
21030;SDS011;61072;47.808;7.636;2023-02-04T00:28:41;4.50;;;2.13;;
21030;SDS011;61072;47.808;7.636;2023-02-04T00:31:08;4.03;;;2.47;;
21030;SDS011;61072;47.808;7.636;2023-02-04T00:33:35;4.03;;;2.38;;
21030;SDS011;61072;47.808;7.636;2023-02-04T00:36:01;2.83;;;2.35;;
21030;SDS011;61072;47.808;7.636;2023-02-04T00:38:28;6.28;;;2.55;;
21030;SDS011;61072;47.808;7.636;2023-02-04T00:40:55;3.30;;;2.47;;
21030;SDS011;61072;47.808;7.636;2023-02-04T00:43:21;2.75;;;2.30;;
21030;SDS011;61072;47.808;7.636;2023-02-04T00:45:48;2.90;;;2.40;;
21030;SDS011;61072;47.808;7.636;2023-02-04T00:48:15;5.35;;;2.25;;
21030;SDS011;61072;47.808;7.636;2023-02-04T00:50:41;5.82;;;2.45;;
21030;SDS011;61072;47.808;7.636;2023-02-04T00:53:08;5.25;;;2.95;;
21030;SDS011;61072;47.808;7.636;2023-02-04T00:55:35;5.32;;;2.13;;
21030;SDS011;61072;47.808;7.636;2023-02-04T00:58:01;3.72;;;2.55;;
21030;SDS011;61072;47.808;7.636;2023-02-04T01:00:28;5.40;;;2.42;;
21030;SDS011;61072;47.808;7.636;2023-02-04T01:02:55;5.28;;;2.60;;
21030;SDS011;61072;47.808;7.636;2023-02-04T01:05:22;3.55;;;1.88;;
21030;SDS011;61072;47.808;7.636;2023-02-04T01:07:49;5.00;;;2.53;;
21030;SDS011;61072;47.808;7.636;2023-02-04T01:10:16;2.88;;;2.38;;
21030;SDS011;61072;47.808;7.636;2023-02-04T01:12:43;3.45;;;2.40;;
21030;SDS011;61072;47.808;7.636;2023-02-04T01:15:10;3.10;;;2.42;;
21030;SDS011;61072;47.808;7.636;2023-02-04T01:17:36;3.78;;;2.50;;
21030;SDS011;61072;47.808;7.636;2023-02-04T01:20:03;4.35;;;2.53;;
21030;SDS011;61072;47.808;7.636;2023-02-04T01:22:30;4.53;;;2.97;;
21030;SDS011;61072;47.808;7.636;2023-02-04T01:24:57;3.17;;;2.40;;
21030;SDS011;61072;47.808;7.636;2023-02-04T01:27:23;2.67;;;2.05;;
21030;SDS011;61072;47.808;7.636;2023-02-04T01:29:50;5.63;;;3.35;;
21030;SDS011;61072;47.808;7.636;2023-02-04T01:32:17;5.03;;;2.78;;
21030;SDS011;61072;47.808;7.636;2023-02-04T01:34:43;5.63;;;2.70;;
21030;SDS011;61072;47.808;7.636;2023-02-04T01:37:10;3.92;;;2.20;;
21030;SDS011;61072;47.808;7.636;2023-02-04T01:39:37;5.60;;;2.40;;
21030;SDS011;61072;47.808;7.636;2023-02-04T01:42:04;3.80;;;2.80;;
21030;SDS011;61072;47.808;7.636;2023-02-04T01:44:31;4.10;;;2.28;;
21030;SDS011;61072;47.808;7.636;2023-02-04T01:46:58;4.47;;;2.28;;
21030;SDS011;61072;47.808;7.636;2023-02-04T01:49:25;3.03;;;2.30;;
21030;SDS011;61072;47.808;7.636;2023-02-04T01:51:52;4.07;;;2.53;;
21030;SDS011;61072;47.808;7.636;2023-02-04T01:54:19;4.05;;;2.30;;
21030;SDS011;61072;47.808;7.636;2023-02-04T01:56:47;3.67;;;2.40;;
21030;SDS011;61072;47.808;7.636;2023-02-04T01:59:16;4.30;;;2.70;;
21030;SDS011;61072;47.808;7.636;2023-02-04T02:01:45;7.07;;;2.35;;
21030;SDS011;61072;47.808;7.636;2023-02-04T02:04:16;4.28;;;2.10;;
21030;SDS011;61072;47.808;7.636;2023-02-04T02:06:46;5.57;;;2.47;;
21030;SDS011;61072;47.808;7.636;2023-02-04T02:09:17;3.63;;;2.42;;
21030;SDS011;61072;47.808;7.636;2023-02-04T02:11:44;2.75;;;2.30;;
21030;SDS011;61072;47.808;7.636;2023-02-04T02:14:11;3.08;;;2.25;;
21030;SDS011;61072;47.808;7.636;2023-02-04T02:16:38;3.45;;;2.50;;
21030;SDS011;61072;47.808;7.636;2023-02-04T02:19:05;3.63;;;2.38;;
21030;SDS011;61072;47.808;7.636;2023-02-04T02:24:22;3.67;;;2.35;;
21030;SDS011;61072;47.808;7.636;2023-02-04T02:26:53;5.55;;;2.35;;
21030;SDS011;61072;47.808;7.636;2023-02-04T02:29:22;3.42;;;2.63;;
21030;SDS011;61072;47.808;7.636;2023-02-04T02:31:49;4.80;;;2.45;;
21030;SDS011;61072;47.808;7.636;2023-02-04T02:34:17;4.57;;;2.45;;
21030;SDS011;61072;47.808;7.636;2023-02-04T02:36:43;4.07;;;3.33;;
21030;SDS011;61072;47.808;7.636;2023-02-04T02:39:10;4.90;;;2.60;;
21030;SDS011;61072;47.808;7.636;2023-02-04T02:41:37;7.15;;;2.65;;
21030;SDS011;61072;47.808;7.636;2023-02-04T02:44:05;2.95;;;2.10;;
21030;SDS011;61072;47.808;7.636;2023-02-04T02:46:32;2.67;;;2.22;;
21030;SDS011;61072;47.808;7.636;2023-02-04T02:48:59;3.88;;;2.05;;
21030;SDS011;61072;47.808;7.636;2023-02-04T02:51:25;4.25;;;2.47;;
21030;SDS011;61072;47.808;7.636;2023-02-04T02:53:53;5.60;;;2.65;;
21030;SDS011;61072;47.808;7.636;2023-02-04T02:56:20;4.72;;;2.38;;
21030;SDS011;61072;47.808;7.636;2023-02-04T02:58:47;2.67;;;2.47;;
21030;SDS011;61072;47.808;7.636;2023-02-04T03:01:14;4.00;;;2.47;;
21030;SDS011;61072;47.808;7.636;2023-02-04T03:03:43;2.55;;;2.25;;
21030;SDS011;61072;47.808;7.636;2023-02-04T03:06:14;4.50;;;2.80;;
21030;SDS011;61072;47.808;7.636;2023-02-04T03:08:45;3.88;;;2.45;;
21030;SDS011;61072;47.808;7.636;2023-02-04T03:11:15;2.63;;;2.28;;
21030;SDS011;61072;47.808;7.636;2023-02-04T03:13:42;3.92;;;2.10;;
21030;SDS011;61072;47.808;7.636;2023-02-04T03:16:09;3.10;;;2.47;;
21030;SDS011;61072;47.808;7.636;2023-02-04T03:18:36;4.20;;;2.63;;
21030;SDS011;61072;47.808;7.636;2023-02-04T03:21:04;4.43;;;2.40;;
21030;SDS011;61072;47.808;7.636;2023-02-04T03:23:32;3.05;;;2.45;;
21030;SDS011;61072;47.808;7.636;2023-02-04T03:26:00;3.13;;;2.58;;
21030;SDS011;61072;47.808;7.636;2023-02-04T03:28:28;2.78;;;2.00;;
21030;SDS011;61072;47.808;7.636;2023-02-04T03:30:56;5.70;;;2.70;;
21030;SDS011;61072;47.808;7.636;2023-02-04T03:33:24;2.78;;;2.47;;
21030;SDS011;61072;47.808;7.636;2023-02-04T03:35:54;3.83;;;2.55;;
21030;SDS011;61072;47.808;7.636;2023-02-04T03:38:20;3.88;;;2.38;;
21030;SDS011;61072;47.808;7.636;2023-02-04T03:40:47;3.30;;;2.60;;
21030;SDS011;61072;47.808;7.636;2023-02-04T03:43:14;3.85;;;2.40;;
21030;SDS011;61072;47.808;7.636;2023-02-04T03:45:40;2.95;;;2.40;;
21030;SDS011;61072;47.808;7.636;2023-02-04T03:48:11;3.72;;;2.40;;
21030;SDS011;61072;47.808;7.636;2023-02-04T03:50:37;3.08;;;2.22;;
21030;SDS011;61072;47.808;7.636;2023-02-04T03:53:04;2.60;;;2.40;;
21030;SDS011;61072;47.808;7.636;2023-02-04T03:55:31;2.97;;;2.20;;
21030;SDS011;61072;47.808;7.636;2023-02-04T03:57:58;2.80;;;2.33;;
21030;SDS011;61072;47.808;7.636;2023-02-04T04:00:24;4.82;;;2.40;;
21030;SDS011;61072;47.808;7.636;2023-02-04T04:02:51;4.30;;;2.17;;
21030;SDS011;61072;47.808;7.636;2023-02-04T04:05:18;2.45;;;2.15;;
21030;SDS011;61072;47.808;7.636;2023-02-04T04:07:45;2.88;;;2.25;;
21030;SDS011;61072;47.808;7.636;2023-02-04T04:10:11;3.15;;;2.35;;
21030;SDS011;61072;47.808;7.636;2023-02-04T04:12:38;3.03;;;2.58;;
21030;SDS011;61072;47.808;7.636;2023-02-04T04:15:05;4.05;;;2.40;;
21030;SDS011;61072;47.808;7.636;2023-02-04T04:17:32;3.97;;;2.45;;
21030;SDS011;61072;47.808;7.636;2023-02-04T04:19:59;2.50;;;2.30;;
21030;SDS011;61072;47.808;7.636;2023-02-04T04:22:25;4.70;;;2.28;;
21030;SDS011;61072;47.808;7.636;2023-02-04T04:24:52;2.47;;;2.17;;
21030;SDS011;61072;47.808;7.636;2023-02-04T04:27:19;2.70;;;2.50;;
21030;SDS011;61072;47.808;7.636;2023-02-04T04:29:45;3.85;;;2.10;;
21030;SDS011;61072;47.808;7.636;2023-02-04T04:32:12;2.63;;;2.20;;
21030;SDS011;61072;47.808;7.636;2023-02-04T04:34:39;3.92;;;2.65;;
21030;SDS011;61072;47.808;7.636;2023-02-04T04:37:05;4.15;;;2.70;;
21030;SDS011;61072;47.808;7.636;2023-02-04T04:39:32;3.10;;;2.45;;
21030;SDS011;61072;47.808;7.636;2023-02-04T04:41:59;3.00;;;2.38;;
21030;SDS011;61072;47.808;7.636;2023-02-04T04:44:25;2.67;;;2.10;;
21030;SDS011;61072;47.808;7.636;2023-02-04T04:46:52;5.35;;;2.85;;
21030;SDS011;61072;47.808;7.636;2023-02-04T04:49:19;2.70;;;2.35;;
21030;SDS011;61072;47.808;7.636;2023-02-04T04:51:46;3.03;;;2.70;;
21030;SDS011;61072;47.808;7.636;2023-02-04T04:54:12;4.25;;;2.67;;
21030;SDS011;61072;47.808;7.636;2023-02-04T04:56:39;4.60;;;2.63;;
21030;SDS011;61072;47.808;7.636;2023-02-04T04:59:06;2.65;;;2.45;;
21030;SDS011;61072;47.808;7.636;2023-02-04T05:01:32;3.83;;;3.25;;
21030;SDS011;61072;47.808;7.636;2023-02-04T05:03:59;2.97;;;2.67;;
21030;SDS011;61072;47.808;7.636;2023-02-04T05:06:26;3.58;;;2.58;;
21030;SDS011;61072;47.808;7.636;2023-02-04T05:08:53;3.33;;;2.70;;
21030;SDS011;61072;47.808;7.636;2023-02-04T05:11:20;11.02;;;4.03;;
21030;SDS011;61072;47.808;7.636;2023-02-04T05:13:47;4.82;;;2.90;;
21030;SDS011;61072;47.808;7.636;2023-02-04T05:16:13;3.58;;;2.67;;
21030;SDS011;61072;47.808;7.636;2023-02-04T05:18:41;3.25;;;2.67;;
21030;SDS011;61072;47.808;7.636;2023-02-04T05:21:07;2.75;;;2.35;;
21030;SDS011;61072;47.808;7.636;2023-02-04T05:23:34;4.20;;;2.70;;
21030;SDS011;61072;47.808;7.636;2023-02-04T05:26:01;2.60;;;2.30;;
21030;SDS011;61072;47.808;7.636;2023-02-04T05:28:27;3.55;;;2.80;;
21030;SDS011;61072;47.808;7.636;2023-02-04T05:30:54;4.30;;;2.72;;
21030;SDS011;61072;47.808;7.636;2023-02-04T05:33:21;4.68;;;2.67;;
21030;SDS011;61072;47.808;7.636;2023-02-04T05:35:47;3.72;;;2.90;;
21030;SDS011;61072;47.808;7.636;2023-02-04T05:38:15;2.90;;;2.60;;
21030;SDS011;61072;47.808;7.636;2023-02-04T05:40:41;3.13;;;2.58;;
21030;SDS011;61072;47.808;7.636;2023-02-04T05:43:08;3.08;;;2.40;;
21030;SDS011;61072;47.808;7.636;2023-02-04T05:45:35;3.50;;;2.50;;
21030;SDS011;61072;47.808;7.636;2023-02-04T05:48:02;4.10;;;2.80;;
21030;SDS011;61072;47.808;7.636;2023-02-04T05:50:29;3.15;;;2.40;;
21030;SDS011;61072;47.808;7.636;2023-02-04T05:52:56;2.97;;;2.42;;
21030;SDS011;61072;47.808;7.636;2023-02-04T05:55:23;3.08;;;2.40;;
21030;SDS011;61072;47.808;7.636;2023-02-04T05:57:50;3.58;;;2.65;;
21030;SDS011;61072;47.808;7.636;2023-02-04T06:00:16;5.45;;;2.97;;
21030;SDS011;61072;47.808;7.636;2023-02-04T06:02:43;2.80;;;2.30;;
21030;SDS011;61072;47.808;7.636;2023-02-04T06:05:10;3.95;;;2.67;;
21030;SDS011;61072;47.808;7.636;2023-02-04T06:07:37;3.53;;;2.83;;
21030;SDS011;61072;47.808;7.636;2023-02-04T06:10:03;3.65;;;2.50;;
21030;SDS011;61072;47.808;7.636;2023-02-04T06:12:30;3.45;;;2.70;;
21030;SDS011;61072;47.808;7.636;2023-02-04T06:14:57;3.53;;;2.80;;
21030;SDS011;61072;47.808;7.636;2023-02-04T06:17:24;3.75;;;2.70;;
21030;SDS011;61072;47.808;7.636;2023-02-04T06:19:50;3.30;;;2.70;;
21030;SDS011;61072;47.808;7.636;2023-02-04T06:22:17;3.75;;;3.10;;
21030;SDS011;61072;47.808;7.636;2023-02-04T06:24:44;3.58;;;2.53;;
21030;SDS011;61072;47.808;7.636;2023-02-04T06:27:12;3.67;;;3.00;;
21030;SDS011;61072;47.808;7.636;2023-02-04T06:29:39;3.58;;;2.97;;
21030;SDS011;61072;47.808;7.636;2023-02-04T06:32:06;2.97;;;2.65;;
21030;SDS011;61072;47.808;7.636;2023-02-04T06:34:32;4.85;;;3.03;;
21030;SDS011;61072;47.808;7.636;2023-02-04T06:36:59;4.15;;;3.22;;
21030;SDS011;61072;47.808;7.636;2023-02-04T06:39:26;4.10;;;3.25;;
21030;SDS011;61072;47.808;7.636;2023-02-04T06:41:52;4.72;;;3.65;;
21030;SDS011;61072;47.808;7.636;2023-02-04T06:44:19;3.50;;;3.10;;
21030;SDS011;61072;47.808;7.636;2023-02-04T06:46:46;3.72;;;2.45;;
21030;SDS011;61072;47.808;7.636;2023-02-04T06:49:12;3.78;;;3.20;;
21030;SDS011;61072;47.808;7.636;2023-02-04T06:51:39;5.40;;;3.00;;
21030;SDS011;61072;47.808;7.636;2023-02-04T06:54:06;4.32;;;2.67;;
21030;SDS011;61072;47.808;7.636;2023-02-04T06:56:33;3.92;;;2.92;;
21030;SDS011;61072;47.808;7.636;2023-02-04T06:58:59;4.63;;;2.88;;
21030;SDS011;61072;47.808;7.636;2023-02-04T07:01:28;3.25;;;2.75;;
21030;SDS011;61072;47.808;7.636;2023-02-04T07:03:55;6.43;;;4.35;;
21030;SDS011;61072;47.808;7.636;2023-02-04T07:06:22;6.75;;;3.83;;
21030;SDS011;61072;47.808;7.636;2023-02-04T07:08:48;5.65;;;4.15;;
21030;SDS011;61072;47.808;7.636;2023-02-04T07:11:15;8.30;;;5.30;;
21030;SDS011;61072;47.808;7.636;2023-02-04T07:13:42;6.57;;;3.80;;
21030;SDS011;61072;47.808;7.636;2023-02-04T07:16:09;3.60;;;3.30;;
21030;SDS011;61072;47.808;7.636;2023-02-04T07:18:35;7.25;;;4.18;;
21030;SDS011;61072;47.808;7.636;2023-02-04T07:21:02;5.13;;;3.83;;
21030;SDS011;61072;47.808;7.636;2023-02-04T07:23:29;4.80;;;3.80;;
21030;SDS011;61072;47.808;7.636;2023-02-04T07:25:55;6.00;;;3.80;;
21030;SDS011;61072;47.808;7.636;2023-02-04T07:28:24;5.60;;;3.47;;
21030;SDS011;61072;47.808;7.636;2023-02-04T07:30:51;5.55;;;4.55;;
21030;SDS011;61072;47.808;7.636;2023-02-04T07:33:18;4.45;;;3.88;;
21030;SDS011;61072;47.808;7.636;2023-02-04T07:35:44;4.28;;;3.65;;
21030;SDS011;61072;47.808;7.636;2023-02-04T07:38:11;5.07;;;3.80;;
21030;SDS011;61072;47.808;7.636;2023-02-04T07:40:38;4.53;;;3.60;;
21030;SDS011;61072;47.808;7.636;2023-02-04T07:43:04;3.47;;;3.05;;
21030;SDS011;61072;47.808;7.636;2023-02-04T07:45:31;4.15;;;3.35;;
21030;SDS011;61072;47.808;7.636;2023-02-04T07:47:58;4.00;;;3.25;;
21030;SDS011;61072;47.808;7.636;2023-02-04T07:50:24;4.75;;;3.75;;
21030;SDS011;61072;47.808;7.636;2023-02-04T07:52:51;6.53;;;4.15;;
21030;SDS011;61072;47.808;7.636;2023-02-04T07:55:18;5.45;;;3.60;;
21030;SDS011;61072;47.808;7.636;2023-02-04T07:57:44;5.18;;;3.67;;
21030;SDS011;61072;47.808;7.636;2023-02-04T08:00:11;4.47;;;3.20;;
21030;SDS011;61072;47.808;7.636;2023-02-04T08:02:39;4.38;;;3.50;;
21030;SDS011;61072;47.808;7.636;2023-02-04T08:05:07;4.20;;;3.33;;
21030;SDS011;61072;47.808;7.636;2023-02-04T08:07:34;4.07;;;3.45;;
21030;SDS011;61072;47.808;7.636;2023-02-04T08:10:02;6.07;;;4.10;;
21030;SDS011;61072;47.808;7.636;2023-02-04T08:12:29;6.38;;;4.35;;
21030;SDS011;61072;47.808;7.636;2023-02-04T08:14:57;8.60;;;4.90;;
21030;SDS011;61072;47.808;7.636;2023-02-04T08:17:24;6.82;;;5.32;;
21030;SDS011;61072;47.808;7.636;2023-02-04T08:19:50;6.47;;;5.47;;
21030;SDS011;61072;47.808;7.636;2023-02-04T08:22:17;6.38;;;4.53;;
21030;SDS011;61072;47.808;7.636;2023-02-04T08:24:44;5.80;;;4.50;;
21030;SDS011;61072;47.808;7.636;2023-02-04T08:27:10;5.80;;;4.53;;
21030;SDS011;61072;47.808;7.636;2023-02-04T08:29:37;5.05;;;4.10;;
21030;SDS011;61072;47.808;7.636;2023-02-04T08:32:04;8.77;;;3.85;;
21030;SDS011;61072;47.808;7.636;2023-02-04T08:34:31;9.35;;;5.70;;
21030;SDS011;61072;47.808;7.636;2023-02-04T08:36:57;11.88;;;6.78;;
21030;SDS011;61072;47.808;7.636;2023-02-04T08:39:24;6.75;;;4.70;;
21030;SDS011;61072;47.808;7.636;2023-02-04T08:41:51;4.65;;;3.45;;
21030;SDS011;61072;47.808;7.636;2023-02-04T08:44:18;5.95;;;3.65;;
21030;SDS011;61072;47.808;7.636;2023-02-04T08:46:44;7.05;;;4.22;;
21030;SDS011;61072;47.808;7.636;2023-02-04T08:49:11;6.43;;;4.20;;
21030;SDS011;61072;47.808;7.636;2023-02-04T08:51:38;4.80;;;4.07;;
21030;SDS011;61072;47.808;7.636;2023-02-04T08:54:05;5.15;;;4.15;;
21030;SDS011;61072;47.808;7.636;2023-02-04T08:56:31;6.30;;;4.68;;
21030;SDS011;61072;47.808;7.636;2023-02-04T08:58:58;7.82;;;5.57;;
21030;SDS011;61072;47.808;7.636;2023-02-04T09:01:25;9.18;;;5.30;;
21030;SDS011;61072;47.808;7.636;2023-02-04T09:03:51;9.63;;;4.95;;
21030;SDS011;61072;47.808;7.636;2023-02-04T09:06:18;6.72;;;4.53;;
21030;SDS011;61072;47.808;7.636;2023-02-04T09:08:45;9.02;;;5.80;;
21030;SDS011;61072;47.808;7.636;2023-02-04T09:11:12;6.95;;;5.75;;
21030;SDS011;61072;47.808;7.636;2023-02-04T09:13:39;5.75;;;4.43;;
21030;SDS011;61072;47.808;7.636;2023-02-04T09:16:06;6.80;;;4.90;;
21030;SDS011;61072;47.808;7.636;2023-02-04T09:18:33;4.68;;;3.78;;
21030;SDS011;61072;47.808;7.636;2023-02-04T09:21:00;7.05;;;4.10;;
21030;SDS011;61072;47.808;7.636;2023-02-04T09:23:26;5.90;;;4.38;;
21030;SDS011;61072;47.808;7.636;2023-02-04T09:25:53;7.30;;;4.43;;
21030;SDS011;61072;47.808;7.636;2023-02-04T09:28:20;8.35;;;6.22;;
21030;SDS011;61072;47.808;7.636;2023-02-04T09:30:46;6.15;;;4.50;;
21030;SDS011;61072;47.808;7.636;2023-02-04T09:33:14;4.68;;;3.15;;
21030;SDS011;61072;47.808;7.636;2023-02-04T09:35:44;4.70;;;3.70;;
21030;SDS011;61072;47.808;7.636;2023-02-04T09:38:11;4.88;;;3.67;;
21030;SDS011;61072;47.808;7.636;2023-02-04T09:40:42;6.57;;;4.25;;
21030;SDS011;61072;47.808;7.636;2023-02-04T09:43:13;9.70;;;5.60;;
21030;SDS011;61072;47.808;7.636;2023-02-04T09:45:46;11.38;;;5.68;;
21030;SDS011;61072;47.808;7.636;2023-02-04T09:48:14;10.40;;;6.65;;
21030;SDS011;61072;47.808;7.636;2023-02-04T09:50:41;8.18;;;5.80;;
21030;SDS011;61072;47.808;7.636;2023-02-04T09:53:08;9.48;;;5.70;;
21030;SDS011;61072;47.808;7.636;2023-02-04T09:58:10;6.68;;;5.45;;
21030;SDS011;61072;47.808;7.636;2023-02-04T10:00:48;9.38;;;7.13;;
21030;SDS011;61072;47.808;7.636;2023-02-04T10:03:23;6.75;;;5.40;;
21030;SDS011;61072;47.808;7.636;2023-02-04T10:05:49;8.50;;;5.35;;
21030;SDS011;61072;47.808;7.636;2023-02-04T10:08:25;6.03;;;5.43;;
21030;SDS011;61072;47.808;7.636;2023-02-04T10:10:54;8.07;;;6.82;;
21030;SDS011;61072;47.808;7.636;2023-02-04T10:13:25;9.77;;;7.88;;
21030;SDS011;61072;47.808;7.636;2023-02-04T10:15:59;6.50;;;5.80;;
21030;SDS011;61072;47.808;7.636;2023-02-04T10:18:28;9.18;;;6.03;;
21030;SDS011;61072;47.808;7.636;2023-02-04T10:23:31;7.72;;;5.95;;
21030;SDS011;61072;47.808;7.636;2023-02-04T10:25:58;9.70;;;6.68;;
21030;SDS011;61072;47.808;7.636;2023-02-04T10:28:34;7.22;;;5.80;;
21030;SDS011;61072;47.808;7.636;2023-02-04T10:31:02;8.38;;;6.30;;
21030;SDS011;61072;47.808;7.636;2023-02-04T10:33:29;9.27;;;6.10;;
21030;SDS011;61072;47.808;7.636;2023-02-04T10:35:56;9.40;;;6.60;;
21030;SDS011;61072;47.808;7.636;2023-02-04T10:38:23;8.80;;;6.90;;
21030;SDS011;61072;47.808;7.636;2023-02-04T10:41:00;9.45;;;7.28;;
21030;SDS011;61072;47.808;7.636;2023-02-04T10:43:28;7.55;;;6.25;;
21030;SDS011;61072;47.808;7.636;2023-02-04T10:45:56;10.10;;;6.53;;
21030;SDS011;61072;47.808;7.636;2023-02-04T10:48:25;7.32;;;6.47;;
21030;SDS011;61072;47.808;7.636;2023-02-04T10:50:52;9.93;;;7.75;;
21030;SDS011;61072;47.808;7.636;2023-02-04T10:53:20;9.50;;;7.30;;
21030;SDS011;61072;47.808;7.636;2023-02-04T10:56:25;8.10;;;6.70;;
21030;SDS011;61072;47.808;7.636;2023-02-04T10:58:51;10.23;;;6.97;;
21030;SDS011;61072;47.808;7.636;2023-02-04T11:01:18;9.38;;;7.38;;
21030;SDS011;61072;47.808;7.636;2023-02-04T11:03:45;7.35;;;6.60;;
21030;SDS011;61072;47.808;7.636;2023-02-04T11:06:19;10.07;;;7.05;;
21030;SDS011;61072;47.808;7.636;2023-02-04T11:08:47;8.93;;;6.93;;
21030;SDS011;61072;47.808;7.636;2023-02-04T11:11:17;10.70;;;7.65;;
21030;SDS011;61072;47.808;7.636;2023-02-04T11:19:02;7.55;;;5.90;;
21030;SDS011;61072;47.808;7.636;2023-02-04T11:27:04;9.45;;;6.05;;
21030;SDS011;61072;47.808;7.636;2023-02-04T11:29:34;8.00;;;5.63;;
21030;SDS011;61072;47.808;7.636;2023-02-04T11:32:26;8.43;;;6.40;;
21030;SDS011;61072;47.808;7.636;2023-02-04T11:37:38;9.93;;;6.40;;
21030;SDS011;61072;47.808;7.636;2023-02-04T11:42:58;8.82;;;5.80;;
21030;SDS011;61072;47.808;7.636;2023-02-04T11:45:34;6.75;;;5.68;;
21030;SDS011;61072;47.808;7.636;2023-02-04T11:48:03;7.40;;;5.78;;
21030;SDS011;61072;47.808;7.636;2023-02-04T11:50:56;7.68;;;5.80;;
21030;SDS011;61072;47.808;7.636;2023-02-04T11:53:29;5.93;;;5.07;;
21030;SDS011;61072;47.808;7.636;2023-02-04T11:55:57;6.37;;;5.63;;
21030;SDS011;61072;47.808;7.636;2023-02-04T11:58:25;8.30;;;6.45;;
21030;SDS011;61072;47.808;7.636;2023-02-04T12:00:56;12.25;;;8.55;;
21030;SDS011;61072;47.808;7.636;2023-02-04T12:03:27;8.48;;;6.45;;
21030;SDS011;61072;47.808;7.636;2023-02-04T12:06:01;8.02;;;5.38;;
21030;SDS011;61072;47.808;7.636;2023-02-04T12:08:30;5.80;;;4.88;;
21030;SDS011;61072;47.808;7.636;2023-02-04T12:11:11;8.02;;;5.30;;
21030;SDS011;61072;47.808;7.636;2023-02-04T12:13:52;6.97;;;4.43;;
21030;SDS011;61072;47.808;7.636;2023-02-04T12:16:20;4.90;;;4.13;;
21030;SDS011;61072;47.808;7.636;2023-02-04T12:18:48;5.00;;;4.50;;
21030;SDS011;61072;47.808;7.636;2023-02-04T12:21:16;5.10;;;4.10;;
21030;SDS011;61072;47.808;7.636;2023-02-04T12:23:46;8.52;;;4.68;;
21030;SDS011;61072;47.808;7.636;2023-02-04T12:26:13;8.82;;;5.28;;
21030;SDS011;61072;47.808;7.636;2023-02-04T12:28:39;6.90;;;4.47;;
21030;SDS011;61072;47.808;7.636;2023-02-04T12:31:06;5.35;;;3.47;;
21030;SDS011;61072;47.808;7.636;2023-02-04T12:33:33;5.35;;;4.15;;
21030;SDS011;61072;47.808;7.636;2023-02-04T12:36:00;4.47;;;2.97;;
21030;SDS011;61072;47.808;7.636;2023-02-04T12:38:26;3.28;;;2.53;;
21030;SDS011;61072;47.808;7.636;2023-02-04T12:40:53;3.15;;;2.25;;
21030;SDS011;61072;47.808;7.636;2023-02-04T12:43:20;5.60;;;3.05;;
21030;SDS011;61072;47.808;7.636;2023-02-04T12:45:46;2.33;;;1.73;;
21030;SDS011;61072;47.808;7.636;2023-02-04T12:48:15;2.53;;;1.50;;
21030;SDS011;61072;47.808;7.636;2023-02-04T12:50:42;2.90;;;1.80;;
21030;SDS011;61072;47.808;7.636;2023-02-04T12:53:08;2.25;;;1.90;;
21030;SDS011;61072;47.808;7.636;2023-02-04T12:55:35;4.13;;;1.95;;
21030;SDS011;61072;47.808;7.636;2023-02-04T12:58:02;5.63;;;2.00;;
21030;SDS011;61072;47.808;7.636;2023-02-04T13:00:29;4.15;;;1.95;;
21030;SDS011;61072;47.808;7.636;2023-02-04T13:02:56;4.47;;;1.80;;
21030;SDS011;61072;47.808;7.636;2023-02-04T13:05:26;4.40;;;2.13;;
21030;SDS011;61072;47.808;7.636;2023-02-04T13:07:52;6.15;;;2.05;;
21030;SDS011;61072;47.808;7.636;2023-02-04T13:10:19;5.30;;;2.13;;
21030;SDS011;61072;47.808;7.636;2023-02-04T13:12:47;9.07;;;2.53;;
21030;SDS011;61072;47.808;7.636;2023-02-04T13:15:13;8.23;;;2.40;;
21030;SDS011;61072;47.808;7.636;2023-02-04T13:17:40;10.38;;;2.72;;
21030;SDS011;61072;47.808;7.636;2023-02-04T13:20:08;11.80;;;2.75;;
21030;SDS011;61072;47.808;7.636;2023-02-04T13:22:35;8.05;;;3.20;;
21030;SDS011;61072;47.808;7.636;2023-02-04T13:25:02;7.47;;;2.92;;
21030;SDS011;61072;47.808;7.636;2023-02-04T13:27:29;6.75;;;2.35;;
21030;SDS011;61072;47.808;7.636;2023-02-04T13:29:57;12.82;;;3.55;;
21030;SDS011;61072;47.808;7.636;2023-02-04T13:32:24;7.30;;;3.20;;
21030;SDS011;61072;47.808;7.636;2023-02-04T13:34:50;5.03;;;3.03;;
21030;SDS011;61072;47.808;7.636;2023-02-04T13:37:17;9.27;;;2.88;;
21030;SDS011;61072;47.808;7.636;2023-02-04T13:39:44;11.23;;;3.47;;
21030;SDS011;61072;47.808;7.636;2023-02-04T13:42:10;11.98;;;3.88;;
21030;SDS011;61072;47.808;7.636;2023-02-04T13:44:37;16.50;;;5.47;;
21030;SDS011;61072;47.808;7.636;2023-02-04T13:47:04;11.40;;;4.43;;
21030;SDS011;61072;47.808;7.636;2023-02-04T13:49:30;8.63;;;3.90;;
21030;SDS011;61072;47.808;7.636;2023-02-04T13:51:57;11.60;;;4.18;;
21030;SDS011;61072;47.808;7.636;2023-02-04T13:54:24;9.88;;;3.92;;
21030;SDS011;61072;47.808;7.636;2023-02-04T13:56:51;6.38;;;3.03;;
21030;SDS011;61072;47.808;7.636;2023-02-04T13:59:17;9.82;;;3.28;;
21030;SDS011;61072;47.808;7.636;2023-02-04T14:01:46;13.90;;;4.57;;
21030;SDS011;61072;47.808;7.636;2023-02-04T14:04:12;10.02;;;3.50;;
21030;SDS011;61072;47.808;7.636;2023-02-04T14:06:39;11.63;;;3.70;;
21030;SDS011;61072;47.808;7.636;2023-02-04T14:09:09;9.05;;;3.33;;
21030;SDS011;61072;47.808;7.636;2023-02-04T14:11:39;8.25;;;3.17;;
21030;SDS011;61072;47.808;7.636;2023-02-04T14:14:06;10.50;;;3.88;;
21030;SDS011;61072;47.808;7.636;2023-02-04T14:16:33;11.57;;;3.92;;
21030;SDS011;61072;47.808;7.636;2023-02-04T14:19:03;10.07;;;4.15;;
21030;SDS011;61072;47.808;7.636;2023-02-04T14:21:30;13.77;;;4.07;;
21030;SDS011;61072;47.808;7.636;2023-02-04T14:23:57;11.65;;;4.13;;
21030;SDS011;61072;47.808;7.636;2023-02-04T14:26:24;11.85;;;4.10;;
21030;SDS011;61072;47.808;7.636;2023-02-04T14:28:50;8.50;;;3.20;;
21030;SDS011;61072;47.808;7.636;2023-02-04T14:31:17;10.68;;;2.90;;
21030;SDS011;61072;47.808;7.636;2023-02-04T14:33:44;13.55;;;4.10;;
21030;SDS011;61072;47.808;7.636;2023-02-04T14:36:13;11.13;;;4.13;;
21030;SDS011;61072;47.808;7.636;2023-02-04T14:38:40;6.97;;;3.00;;
21030;SDS011;61072;47.808;7.636;2023-02-04T14:41:07;10.38;;;3.58;;
21030;SDS011;61072;47.808;7.636;2023-02-04T14:43:33;10.57;;;4.03;;
21030;SDS011;61072;47.808;7.636;2023-02-04T14:46:03;10.20;;;3.35;;
21030;SDS011;61072;47.808;7.636;2023-02-04T14:48:30;10.07;;;3.00;;
21030;SDS011;61072;47.808;7.636;2023-02-04T14:50:57;9.60;;;3.45;;
21030;SDS011;61072;47.808;7.636;2023-02-04T14:53:24;9.60;;;3.58;;
21030;SDS011;61072;47.808;7.636;2023-02-04T14:55:50;12.85;;;4.30;;
21030;SDS011;61072;47.808;7.636;2023-02-04T14:58:17;12.18;;;4.10;;
21030;SDS011;61072;47.808;7.636;2023-02-04T15:00:44;12.07;;;4.18;;
21030;SDS011;61072;47.808;7.636;2023-02-04T15:03:11;8.70;;;3.13;;
21030;SDS011;61072;47.808;7.636;2023-02-04T15:05:37;9.07;;;3.80;;
21030;SDS011;61072;47.808;7.636;2023-02-04T15:08:04;7.93;;;3.90;;
21030;SDS011;61072;47.808;7.636;2023-02-04T15:10:31;11.77;;;5.28;;
21030;SDS011;61072;47.808;7.636;2023-02-04T15:12:58;11.10;;;4.75;;